Time;durP1;ratioP1;P1;durP2;ratioP2;P2;SDS_P1;SDS_P2;PMS_P1;PMS_P2;Temp;Humidity;BMP_temperature;BMP_pressure;BME280_temperature;BME280_humidity;BME280_pressure;Samples;Min_cycle;Max_cycle;Signal;HPM_P1;HPM_P2
2023/03/05 00:01:36;;;;;;;18.73;8.77;;;;;;;3.28;57.75;98416.78;4487185;31;20449;-81
2023/03/05 00:04:04;;;;;;;21.12;7.72;;;;;;;3.40;57.45;98432.88;4486586;31;20124;-81
2023/03/05 00:06:30;;;;;;;19.25;8.77;;;;;;;3.41;57.37;98421.59;4487060;31;20088;-81
2023/03/05 00:08:57;;;;;;;19.50;8.60;;;;;;;2.99;58.79;98429.81;4487320;31;20084;-81
2023/03/05 00:11:24;;;;;;;22.08;9.10;;;;;;;2.93;58.86;98426.47;4486089;32;20140;-81
2023/03/05 00:13:53;;;;;;;18.85;8.15;;;;;;;3.07;58.73;98420.00;4486095;32;20104;-81
2023/03/05 00:16:19;;;;;;;21.55;8.43;;;;;;;3.13;58.49;98422.44;4487367;31;20426;-81
2023/03/05 00:18:45;;;;;;;19.65;8.55;;;;;;;3.08;58.46;98417.38;4486029;32;20116;-81
2023/03/05 00:21:31;;;;;;;19.10;8.32;;;;;;;2.95;58.96;98422.09;4485979;31;20092;-81
2023/03/05 00:24:00;;;;;;;20.05;8.57;;;;;;;2.60;59.89;98417.06;4487519;31;20165;-81
2023/03/05 00:26:26;;;;;;;22.85;8.85;;;;;;;2.91;59.10;98411.81;4473345;32;20489;-81
2023/03/05 00:28:52;;;;;;;17.98;7.72;;;;;;;2.71;59.56;98421.06;4487408;31;20096;-81
2023/03/05 00:31:20;;;;;;;20.50;7.72;;;;;;;2.63;59.83;98427.38;4486155;32;20107;-81
2023/03/05 00:33:46;;;;;;;21.73;8.77;;;;;;;2.73;59.24;98421.88;4487397;31;20171;-81
2023/03/05 00:36:11;;;;;;;19.58;7.55;;;;;;;2.53;59.78;98427.62;4485826;32;20157;-82
2023/03/05 00:38:37;;;;;;;18.62;7.40;;;;;;;3.00;58.73;98427.16;4487089;31;20072;-80
2023/03/05 00:41:03;;;;;;;24.33;8.75;;;;;;;2.97;58.82;98423.78;4487092;31;20129;-81
2023/03/05 00:43:29;;;;;;;21.58;7.47;;;;;;;3.07;58.08;98409.59;4487334;31;20088;-80
2023/03/05 00:45:54;;;;;;;20.35;8.50;;;;;;;3.03;58.08;98410.59;4485996;32;20104;-80
2023/03/05 00:48:21;;;;;;;19.48;8.32;;;;;;;3.24;57.57;98411.69;4486871;31;20118;-80
2023/03/05 00:50:47;;;;;;;22.10;9.07;;;;;;;3.28;57.66;98408.09;4486897;31;20129;-80
2023/03/05 00:53:13;;;;;;;19.40;8.23;;;;;;;3.14;57.97;98408.53;4486926;32;20118;-80
2023/03/05 00:55:38;;;;;;;23.73;8.85;;;;;;;3.19;57.78;98398.84;4486861;32;20100;-81
2023/03/05 00:58:03;;;;;;;19.52;7.43;;;;;;;3.16;58.09;98401.53;4486859;31;20099;-81
2023/03/05 01:00:29;;;;;;;20.12;8.35;;;;;;;3.18;57.76;98398.88;4486702;31;20313;-82
2023/03/05 01:02:54;;;;;;;21.25;8.18;;;;;;;3.32;57.47;98394.06;4486764;31;20100;-82
2023/03/05 01:05:20;;;;;;;17.58;7.53;;;;;;;3.08;58.01;98393.09;4485464;31;20104;-82
2023/03/05 01:07:45;;;;;;;19.52;8.18;;;;;;;3.10;57.78;98393.91;4486709;31;20112;-82
2023/03/05 01:10:11;;;;;;;23.02;8.48;;;;;;;3.27;57.44;98396.84;4486748;31;20149;-82
2023/03/05 01:12:37;;;;;;;21.87;8.15;;;;;;;2.83;58.59;98393.00;4486691;31;20092;-82
2023/03/05 01:15:03;;;;;;;19.33;7.78;;;;;;;2.80;58.82;98401.75;4486766;31;20118;-81
2023/03/05 01:17:29;;;;;;;20.00;8.40;;;;;;;2.81;58.71;98405.19;4486440;31;20088;-81
2023/03/05 01:19:54;;;;;;;18.92;7.68;;;;;;;2.94;58.28;98394.38;4486171;31;20158;-81
2023/03/05 01:22:20;;;;;;;19.75;7.68;;;;;;;3.22;57.58;98395.28;4486465;31;20089;-81
2023/03/05 01:24:45;;;;;;;17.15;7.65;;;;;;;3.27;57.39;98394.22;4486528;31;20111;-81
2023/03/05 01:27:10;;;;;;;20.10;8.00;;;;;;;2.61;59.31;98401.41;4485351;32;20152;-81
2023/03/05 01:29:36;;;;;;;18.17;7.70;;;;;;;2.89;58.67;98404.06;4485214;32;20084;-81
2023/03/05 01:32:02;;;;;;;19.15;7.20;;;;;;;2.79;58.93;98400.03;4485241;32;20380;-81
2023/03/05 01:34:27;;;;;;;20.62;9.13;;;;;;;2.81;58.92;98408.63;4485287;32;20100;-80
2023/03/05 01:36:52;;;;;;;18.95;7.28;;;;;;;2.65;59.50;98402.19;4486361;31;20351;-81
2023/03/05 01:39:18;;;;;;;20.70;8.60;;;;;;;2.83;58.76;98411.19;4486279;31;20122;-81
2023/03/05 01:41:43;;;;;;;19.92;8.07;;;;;;;2.96;58.47;98404.75;4486240;31;20141;-81
2023/03/05 01:44:23;;;;;;;17.98;7.35;;;;;;;2.96;58.45;98409.94;4485083;32;20122;-81
2023/03/05 01:46:49;;;;;;;19.12;8.10;;;;;;;2.93;58.72;98410.88;4486318;32;20110;-81
2023/03/05 01:49:22;;;;;;;20.48;7.87;;;;;;;3.08;58.16;98401.75;4484944;32;20340;-81
2023/03/05 01:51:57;;;;;;;19.83;7.85;;;;;;;3.10;57.81;98407.75;4486236;31;20088;-81
2023/03/05 01:54:30;;;;;;;21.00;7.93;;;;;;;3.04;58.10;98407.09;4484931;32;20185;-81
2023/03/05 01:56:58;;;;;;;19.45;8.50;;;;;;;3.26;57.47;98407.28;4484965;32;20084;-81
2023/03/05 01:59:23;;;;;;;;;;;;;;;3.67;56.19;98398.16;4485209;32;20525;-81
2023/03/05 02:01:52;;;;;;;17.90;7.05;;;;;;;3.23;57.51;98403.03;4484815;32;19980;-81
2023/03/05 02:04:19;;;;;;;21.80;8.73;;;;;;;3.56;56.67;98397.66;4486027;32;20097;-81
2023/03/05 02:06:44;;;;;;;19.58;7.80;;;;;;;3.70;56.24;98405.03;4484853;32;20076;-81
2023/03/05 02:09:10;;;;;;;17.02;7.57;;;;;;;4.05;55.27;98398.63;4485860;31;20111;-81
2023/03/05 02:11:36;;;;;;;16.70;7.28;;;;;;;3.96;55.63;98395.47;4484684;32;20096;-81
2023/03/05 02:14:02;;;;;;;19.45;7.78;;;;;;;3.91;55.58;98396.47;4484599;32;20470;-80
2023/03/05 02:16:34;;;;;;;21.25;7.87;;;;;;;3.67;56.17;98399.91;4484612;32;20491;-81
2023/03/05 02:19:02;;;;;;;19.33;8.15;;;;;;;3.93;55.62;98402.50;4485775;31;20072;-80
2023/03/05 02:21:36;;;;;;;17.33;7.78;;;;;;;3.72;56.31;98401.44;4485496;31;20092;-81
2023/03/05 02:24:02;;;;;;;20.52;7.15;;;;;;;3.82;56.10;98398.56;4484590;32;20131;-81
2023/03/05 02:26:27;;;;;;;19.87;7.87;;;;;;;3.81;55.96;98394.25;4485883;31;20077;-81
2023/03/05 02:28:56;;;;;;;18.90;7.82;;;;;;;4.11;55.10;98398.44;4487381;31;20092;-80
2023/03/05 02:31:23;;;;;;;18.87;7.72;;;;;;;4.19;54.88;98398.16;4487079;32;20122;-80
2023/03/05 02:33:50;;;;;;;20.55;7.25;;;;;;;4.14;54.97;98397.47;4486812;32;20108;-82
2023/03/05 02:36:15;;;;;;;18.45;8.02;;;;;;;4.08;55.29;98397.69;4486751;32;20151;-82
2023/03/05 02:38:42;;;;;;;18.75;7.35;;;;;;;4.41;54.34;98395.63;4487966;31;20135;-83
2023/03/05 02:41:08;;;;;;;19.58;8.07;;;;;;;4.21;54.76;98400.69;4487762;31;20148;-82
2023/03/05 02:43:33;;;;;;;19.45;7.22;;;;;;;4.16;54.87;98393.03;4487914;31;20111;-82
2023/03/05 02:45:59;;;;;;;18.45;7.20;;;;;;;4.62;53.80;98385.34;4486682;32;20132;-82
2023/03/05 02:48:25;;;;;;;19.30;7.22;;;;;;;4.58;53.70;98381.09;4487713;31;20130;-82
2023/03/05 02:50:50;;;;;;;19.10;6.97;;;;;;;4.34;54.30;98378.50;4487755;31;20142;-82
2023/03/05 02:53:15;;;;;;;17.48;7.10;;;;;;;4.63;53.67;98376.59;4486672;32;20084;-82
2023/03/05 02:55:41;;;;;;;18.02;6.97;;;;;;;4.36;54.17;98376.69;4487791;31;20124;-82
2023/03/05 02:58:06;;;;;;;18.45;6.80;;;;;;;4.17;54.72;98381.69;4487723;31;20111;-82
2023/03/05 03:00:32;;;;;;;18.90;7.47;;;;;;;4.28;54.60;98369.13;4487623;31;20116;-82
2023/03/05 03:02:57;;;;;;;18.02;7.22;;;;;;;4.02;55.29;98358.78;4487827;31;20101;-81
2023/03/05 03:05:23;;;;;;;16.50;6.95;;;;;;;4.21;55.06;98367.66;4487710;31;20080;-81
2023/03/05 03:07:49;;;;;;;19.83;7.72;;;;;;;4.22;54.91;98361.53;4487823;32;20076;-81
2023/03/05 03:10:14;;;;;;;17.50;7.03;;;;;;;3.87;55.79;98363.63;4487981;31;20104;-81
2023/03/05 03:12:41;;;;;;;18.87;7.53;;;;;;;4.22;55.11;98361.53;4486688;31;20092;-81
2023/03/05 03:15:08;;;;;;;16.10;6.43;;;;;;;3.87;56.02;98368.84;4486760;32;20092;-81
2023/03/05 03:17:35;;;;;;;18.47;7.40;;;;;;;4.19;55.37;98366.00;4486460;31;20126;-82
2023/03/05 03:20:01;;;;;;;19.37;7.43;;;;;;;4.07;55.64;98370.75;4487369;31;20088;-82
2023/03/05 03:22:27;;;;;;;17.65;6.80;;;;;;;4.09;55.83;98368.09;4486457;32;20508;-82
2023/03/05 03:24:53;;;;;;;20.08;7.32;;;;;;;3.78;56.62;98366.53;4486466;32;20085;-82
2023/03/05 03:27:18;;;;;;;18.30;7.60;;;;;;;3.92;56.05;98368.66;4486353;32;20364;-82
2023/03/05 03:29:44;;;;;;;17.23;7.25;;;;;;;3.93;56.25;98358.19;4487601;31;20115;-82
2023/03/05 03:32:09;;;;;;;19.27;6.60;;;;;;;4.05;55.90;98353.47;4486273;32;20097;-81
2023/03/05 03:34:34;;;;;;;19.05;7.22;;;;;;;4.03;55.79;98353.50;4487487;31;20088;-81
2023/03/05 03:37:00;;;;;;;20.17;6.97;;;;;;;3.98;55.95;98359.78;4486288;32;20077;-81
2023/03/05 03:39:26;;;;;;;16.90;6.93;;;;;;;4.09;55.83;98355.06;4487363;32;20141;-81
2023/03/05 03:41:52;;;;;;;20.27;7.10;;;;;;;3.65;56.80;98353.09;4487426;31;20145;-81
2023/03/05 03:44:19;;;;;;;18.40;7.15;;;;;;;3.74;56.78;98350.16;4487440;31;20088;-81
2023/03/05 03:46:45;;;;;;;17.90;7.20;;;;;;;4.18;55.66;98351.28;4487355;31;20107;-81
2023/03/05 03:49:22;;;;;;;18.87;6.75;;;;;;;4.33;54.88;98351.56;4487645;31;20084;-80
2023/03/05 03:51:49;;;;;;;18.02;6.80;;;;;;;4.02;56.19;98359.66;4487539;31;20088;-80
2023/03/05 03:54:15;;;;;;;18.50;7.43;;;;;;;4.31;55.21;98360.38;4486286;32;20107;-80
2023/03/05 03:56:41;;;;;;;21.52;7.35;;;;;;;4.48;54.83;98360.59;4486179;32;20072;-80
2023/03/05 03:59:06;;;;;;;17.00;7.50;;;;;;;4.09;55.72;98370.69;4486367;32;20157;-78
2023/03/05 04:01:32;;;;;;;18.00;7.12;;;;;;;4.18;55.60;98372.97;4486116;32;20148;-79
2023/03/05 04:03:57;;;;;;;19.35;6.70;;;;;;;3.78;56.80;98361.31;4487342;31;20478;-79
2023/03/05 04:06:23;;;;;;;19.80;7.32;;;;;;;4.42;55.05;98360.81;4487351;31;20073;-78
2023/03/05 04:08:48;;;;;;;13.98;6.22;;;;;;;4.30;55.12;98358.66;4487229;31;20114;-79
2023/03/05 04:11:14;;;;;;;21.00;7.50;;;;;;;4.08;56.01;98353.38;4487371;31;20103;-81
2023/03/05 04:13:40;;;;;;;21.20;7.43;;;;;;;3.96;56.51;98353.78;4486127;32;20076;-81
2023/03/05 04:16:06;;;;;;;17.85;7.40;;;;;;;4.23;55.73;98349.34;4487063;31;20065;-80
2023/03/05 04:18:32;;;;;;;19.40;6.70;;;;;;;3.86;56.83;98350.62;4486347;32;20131;-81
2023/03/05 04:20:57;;;;;;;20.27;6.95;;;;;;;4.03;56.35;98350.06;4485674;32;20118;-79
2023/03/05 04:23:23;;;;;;;17.25;7.25;;;;;;;4.41;55.36;98345.25;4487009;32;20106;-79
2023/03/05 04:25:48;;;;;;;15.07;6.12;;;;;;;4.59;54.74;98346.31;4487198;31;20126;-79
2023/03/05 04:28:13;;;;;;;17.17;6.87;;;;;;;4.66;54.56;98340.81;4487143;31;20100;-78
2023/03/05 04:30:39;;;;;;;17.62;7.62;;;;;;;4.11;55.87;98345.41;4487188;31;20085;-78
2023/03/05 04:33:04;;;;;;;19.67;5.97;;;;;;;4.22;55.72;98342.44;4485960;32;20088;-78
2023/03/05 04:35:30;;;;;;;17.80;6.53;;;;;;;4.63;54.83;98337.44;4487047;31;20076;-80
2023/03/05 04:37:55;;;;;;;15.82;6.45;;;;;;;4.83;54.04;98334.94;4485910;32;20091;-80
2023/03/05 04:40:21;;;;;;;20.12;7.53;;;;;;;4.92;53.90;98328.50;4486868;31;20138;-81
2023/03/05 04:42:47;;;;;;;22.77;6.90;;;;;;;4.76;54.33;98333.47;4485880;32;20085;-82
2023/03/05 04:45:12;;;;;;;17.80;6.62;;;;;;;4.45;55.11;98337.22;4487057;31;20431;-82
2023/03/05 04:47:38;;;;;;;17.73;6.37;;;;;;;4.58;55.01;98328.94;4485763;32;20110;-82
2023/03/05 04:50:05;;;;;;;17.23;7.15;;;;;;;3.93;56.72;98346.94;4486644;31;20118;-82
2023/03/05 04:52:31;;;;;;;16.80;6.20;;;;;;;4.58;55.15;98329.81;4485407;32;20472;-82
2023/03/05 04:54:56;;;;;;;20.67;7.07;;;;;;;4.93;54.07;98336.28;4487234;31;20097;-82
2023/03/05 04:57:22;;;;;;;19.30;7.18;;;;;;;4.84;54.11;98328.78;4486067;32;20444;-82
2023/03/05 04:59:47;;;;;;;18.23;6.30;;;;;;;4.93;54.22;98327.59;4486719;31;20443;-82
2023/03/05 05:02:13;;;;;;;20.73;7.82;;;;;;;4.67;54.77;98331.19;4486855;31;20419;-81
2023/03/05 05:04:39;;;;;;;19.52;6.85;;;;;;;4.83;54.36;98332.34;4486783;31;20122;-81
2023/03/05 05:07:06;;;;;;;18.52;7.15;;;;;;;4.69;54.80;98332.00;4472458;32;20104;-81
2023/03/05 05:09:32;;;;;;;20.77;6.93;;;;;;;4.67;55.04;98329.44;4487030;31;20141;-81
2023/03/05 05:11:57;;;;;;;19.67;7.32;;;;;;;5.10;53.75;98324.34;4485427;32;20077;-81
2023/03/05 05:14:23;;;;;;;18.92;6.53;;;;;;;5.13;53.51;98322.44;4485607;32;20076;-82
2023/03/05 05:16:48;;;;;;;17.95;7.25;;;;;;;5.24;53.35;98318.56;4486347;31;20096;-81
2023/03/05 05:19:13;;;;;;;19.90;7.35;;;;;;;5.12;53.55;98325.97;4486534;31;20109;-81
2023/03/05 05:21:39;;;;;;;17.00;7.05;;;;;;;5.40;52.90;98324.84;4486253;31;20084;-81
2023/03/05 05:24:05;;;;;;;17.35;6.62;;;;;;;5.43;52.87;98321.28;4485375;32;20080;-81
2023/03/05 05:26:31;;;;;;;18.67;7.43;;;;;;;5.62;52.24;98323.94;4486421;31;20112;-81
2023/03/05 05:28:56;;;;;;;21.77;7.68;;;;;;;5.33;52.90;98326.00;4485457;32;20713;-81
2023/03/05 05:31:22;;;;;;;18.37;7.25;;;;;;;5.07;53.56;98324.44;4486388;31;20076;-81
2023/03/05 05:33:47;;;;;;;17.65;6.62;;;;;;;5.45;52.75;98330.72;4486357;31;20076;-82
2023/03/05 05:36:14;;;;;;;17.23;6.57;;;;;;;5.27;51.97;98332.34;4486423;31;20480;-82
2023/03/05 05:38:40;;;;;;;18.67;6.97;;;;;;;5.54;51.37;98336.47;4485165;32;20096;-82
2023/03/05 05:41:11;;;;;;;20.70;7.53;;;;;;;5.81;51.00;98335.31;4486358;31;20084;-82
2023/03/05 05:43:37;;;;;;;18.08;7.20;;;;;;;5.86;51.16;98335.97;4485182;32;20080;-82
2023/03/05 05:46:05;;;;;;;17.27;6.80;;;;;;;5.54;52.08;98349.56;4486311;31;20088;-81
2023/03/05 05:48:31;;;;;;;;;;;;;;;5.70;51.72;98358.47;4485411;32;20182;-81
2023/03/05 05:50:57;;;;;;;21.00;7.35;;;;;;;5.94;50.97;98358.34;4486197;32;19976;-82
2023/03/05 05:53:23;;;;;;;20.00;8.07;;;;;;;5.90;51.33;98358.47;4486169;31;20088;-81
2023/03/05 05:55:48;;;;;;;18.30;7.68;;;;;;;5.93;51.13;98359.25;4486025;31;20333;-82
2023/03/05 05:58:14;;;;;;;18.45;7.62;;;;;;;5.44;52.10;98362.13;4484961;32;20139;-81
2023/03/05 06:00:39;;;;;;;20.55;7.90;;;;;;;5.51;51.85;98366.22;4485999;31;20328;-82
2023/03/05 06:03:05;;;;;;;19.15;7.78;;;;;;;5.30;52.52;98365.31;4486736;31;20129;-82
2023/03/05 06:05:30;;;;;;;21.90;8.10;;;;;;;5.51;52.11;98360.97;4488121;31;20088;-82
2023/03/05 06:07:55;;;;;;;20.17;8.57;;;;;;;5.09;53.07;98362.63;4488144;31;20145;-83
2023/03/05 06:10:21;;;;;;;22.00;8.27;;;;;;;4.86;53.62;98355.69;4487997;31;20395;-82
2023/03/05 06:12:46;;;;;;;19.40;8.35;;;;;;;5.28;52.70;98357.53;4488130;31;20081;-82
2023/03/05 06:15:12;;;;;;;25.33;9.32;;;;;;;5.04;53.25;98348.91;4488004;31;20097;-82
2023/03/05 06:17:37;;;;;;;21.12;8.32;;;;;;;4.80;54.04;98355.94;4488108;31;20100;-82
2023/03/05 06:20:05;;;;;;;19.23;8.23;;;;;;;4.97;53.58;98362.28;4486765;32;20120;-81
2023/03/05 06:22:30;;;;;;;;;;;;;;;4.37;55.11;98356.69;4488268;31;20092;-81
2023/03/05 06:24:56;;;;;;;20.08;7.25;;;;;;;4.66;54.12;98366.88;4487292;32;20041;-82
2023/03/05 06:27:21;;;;;;;19.02;7.10;;;;;;;5.32;52.60;98347.81;4488227;31;20473;-82
2023/03/05 06:29:47;;;;;;;18.50;6.70;;;;;;;4.68;53.66;98359.00;4488169;31;20085;-81
2023/03/05 06:32:12;;;;;;;21.33;7.82;;;;;;;5.01;52.85;98356.88;4486811;32;20106;-81
2023/03/05 06:34:37;;;;;;;19.25;6.87;;;;;;;5.03;52.91;98360.25;4486819;31;20104;-82
2023/03/05 06:37:03;;;;;;;18.87;7.18;;;;;;;5.77;51.31;98356.44;4488160;31;20133;-83
2023/03/05 06:39:30;;;;;;;17.77;6.55;;;;;;;5.61;51.58;98356.22;4486955;32;20120;-83
2023/03/05 06:41:55;;;;;;;17.33;7.00;;;;;;;5.71;51.40;98361.00;4488071;31;20084;-83
2023/03/05 06:44:21;;;;;;;21.70;7.45;;;;;;;5.40;51.84;98357.97;4486754;32;20207;-83
2023/03/05 06:46:46;;;;;;;19.52;7.57;;;;;;;5.49;51.67;98361.03;4487659;31;20093;-83
2023/03/05 06:49:12;;;;;;;19.27;7.05;;;;;;;5.07;52.99;98367.06;4487864;31;20111;-82
2023/03/05 06:51:39;;;;;;;19.90;7.95;;;;;;;5.49;52.14;98360.19;4487897;31;20337;-84
2023/03/05 06:54:07;;;;;;;19.87;7.60;;;;;;;5.63;51.81;98364.84;4488163;32;20607;-83
2023/03/05 06:56:34;;;;;;;19.75;7.22;;;;;;;6.20;50.34;98365.94;4488069;31;20176;-83
2023/03/05 06:59:00;;;;;;;19.08;8.13;;;;;;;6.41;49.87;98363.28;4486804;32;20102;-83
2023/03/05 07:01:25;;;;;;;19.27;7.57;;;;;;;6.25;50.21;98363.97;4487774;31;20153;-83
2023/03/05 07:03:52;;;;;;;22.50;8.13;;;;;;;5.95;51.02;98367.88;4487964;31;20109;-83
2023/03/05 07:06:19;;;;;;;19.75;7.72;;;;;;;5.97;51.00;98371.28;4486743;32;20147;-84
2023/03/05 07:08:44;;;;;;;20.88;7.72;;;;;;;5.55;52.37;98375.63;4487957;31;20163;-83
2023/03/05 07:11:20;;;;;;;22.45;8.27;;;;;;;5.57;52.44;98376.41;4486678;32;20334;-83
2023/03/05 07:13:49;;;;;;;22.60;8.18;;;;;;;5.58;52.42;98370.28;4486370;32;20112;-84
2023/03/05 07:16:20;;;;;;;21.58;7.95;;;;;;;5.49;53.06;98376.72;4487901;31;20160;-83
2023/03/05 07:18:45;;;;;;;21.73;8.32;;;;;;;6.05;51.53;98375.31;4487997;31;20151;-82
2023/03/05 07:21:15;;;;;;;22.73;8.20;;;;;;;5.63;52.42;98376.16;4486413;32;20124;-82
2023/03/05 07:23:41;;;;;;;21.75;8.55;;;;;;;5.83;52.03;98372.72;4487839;31;20119;-82
2023/03/05 07:26:06;;;;;;;19.95;8.07;;;;;;;5.87;51.81;98365.56;4487855;31;20089;-82
2023/03/05 07:28:32;;;;;;;21.35;9.02;;;;;;;6.02;51.70;98383.25;4486590;31;20092;-80
2023/03/05 07:31:01;;;;;;;22.65;8.55;;;;;;;5.73;52.12;98366.16;4487914;31;20084;-80
2023/03/05 07:33:27;;;;;;;21.05;8.95;;;;;;;5.79;52.00;98372.91;4486623;32;20130;-80
2023/03/05 07:35:52;;;;;;;20.23;8.30;;;;;;;5.68;52.42;98381.22;4487873;31;20076;-80
2023/03/05 07:38:18;;;;;;;19.98;8.05;;;;;;;6.04;51.50;98373.59;4487720;32;20099;-83
2023/03/05 07:40:43;;;;;;;20.10;7.72;;;;;;;6.15;50.99;98373.12;4487569;31;20077;-81
2023/03/05 07:43:09;;;;;;;18.98;7.15;;;;;;;6.32;50.88;98364.56;4487839;31;20112;-83
2023/03/05 07:45:38;;;;;;;21.00;8.27;;;;;;;6.52;50.47;98368.06;4486364;32;20160;-81
2023/03/05 07:48:04;;;;;;;18.70;7.10;;;;;;;6.44;50.55;98366.62;4489231;31;20104;-86
2023/03/05 07:50:31;;;;;;;19.20;7.72;;;;;;;5.78;52.04;98366.00;4495153;31;20076;-77
2023/03/05 07:52:57;;;;;;;17.35;7.07;;;;;;;5.57;52.68;98368.56;4493886;31;20092;-75
2023/03/05 07:55:22;;;;;;;19.05;7.95;;;;;;;6.24;51.15;98364.91;4485121;31;20246;-82
2023/03/05 07:57:48;;;;;;;18.62;7.62;;;;;;;6.15;51.43;98364.44;4494518;31;20111;-82
2023/03/05 08:00:14;;;;;;;18.98;7.57;;;;;;;5.35;53.31;98363.37;4494087;31;20342;-83
2023/03/05 08:02:39;;;;;;;20.50;7.68;;;;;;;5.79;52.78;98359.84;4479510;31;20134;-80
2023/03/05 08:05:05;;;;;;;18.25;7.37;;;;;;;5.91;52.02;98351.50;4495137;31;20352;-83
2023/03/05 08:07:30;;;;;;;19.15;7.75;;;;;;;6.01;52.08;98359.81;4483973;31;20420;-83
2023/03/05 08:09:56;;;;;;;18.15;7.12;;;;;;;6.38;51.08;98350.38;4496970;31;20087;-83
2023/03/05 08:12:22;;;;;;;19.25;7.70;;;;;;;6.63;50.48;98345.72;4494815;31;20132;-81
2023/03/05 08:14:47;;;;;;;17.70;7.15;;;;;;;6.53;50.61;98362.75;4493747;31;20101;-82
2023/03/05 08:17:12;;;;;;;17.37;6.82;;;;;;;6.24;51.49;98359.66;4495222;31;20084;-82
2023/03/05 08:19:38;;;;;;;18.45;6.87;;;;;;;6.67;50.43;98352.50;4494139;31;20141;-79
2023/03/05 08:22:03;;;;;;;18.85;7.32;;;;;;;6.68;50.27;98363.81;4493694;31;20104;-83
2023/03/05 08:24:29;;;;;;;18.85;7.65;;;;;;;6.57;50.91;98364.31;4502426;31;20114;-82
2023/03/05 08:26:56;;;;;;;18.37;7.50;;;;;;;7.08;49.64;98360.19;4502566;31;20092;-79
2023/03/05 08:29:22;;;;;;;17.80;7.55;;;;;;;6.53;50.75;98352.28;4480162;31;20127;-83
2023/03/05 08:31:48;;;;;;;18.33;7.75;;;;;;;7.26;49.49;98349.75;4481251;31;20110;-80
2023/03/05 08:34:13;;;;;;;18.80;6.85;;;;;;;7.23;49.38;98356.00;4518852;31;20174;-83
2023/03/05 08:36:39;;;;;;;19.30;7.55;;;;;;;7.27;48.87;98361.94;4491154;31;20077;-81
2023/03/05 08:39:05;;;;;;;19.90;7.65;;;;;;;7.16;49.11;98359.00;4478745;31;20349;-79
2023/03/05 08:41:31;;;;;;;16.27;6.72;;;;;;;7.45;48.80;98362.81;4500266;31;20107;-79
2023/03/05 08:43:56;;;;;;;18.67;7.68;;;;;;;7.33;48.94;98347.72;4488439;31;20124;-80
2023/03/05 08:46:22;;;;;;;18.83;7.57;;;;;;;7.47;48.74;98342.62;4502784;31;20079;-80
2023/03/05 08:48:48;;;;;;;17.85;7.25;;;;;;;7.32;48.90;98349.50;4478342;32;20084;-80
2023/03/05 08:51:16;;;;;;;19.02;8.35;;;;;;;7.61;48.21;98340.19;4494261;31;20430;-80
2023/03/05 08:53:41;;;;;;;;;;;;;;;7.50;48.38;98328.56;4477890;32;20131;-80
2023/03/05 08:56:07;;;;;;;20.83;7.15;;;;;;;7.66;47.88;98330.31;4485552;31;19995;-80
2023/03/05 08:58:33;;;;;;;17.45;7.35;;;;;;;8.12;47.19;98329.75;4490232;31;20129;-80
2023/03/05 09:00:58;;;;;;;17.92;7.32;;;;;;;7.97;47.15;98328.75;4498769;31;20100;-82
2023/03/05 09:03:24;;;;;;;16.02;6.30;;;;;;;8.43;46.66;98336.06;4488098;31;20091;-81
2023/03/05 09:05:50;;;;;;;17.30;6.72;;;;;;;8.11;46.30;98332.44;4490805;31;20152;-81
2023/03/05 09:08:16;;;;;;;16.15;6.28;;;;;;;8.05;46.62;98329.22;4499646;31;20084;-81
2023/03/05 09:10:42;;;;;;;17.50;6.37;;;;;;;7.70;47.06;98332.78;4486762;31;20465;-78
2023/03/05 09:13:08;;;;;;;17.87;6.65;;;;;;;7.70;46.93;98333.63;4488573;31;20103;-83
2023/03/05 09:15:33;;;;;;;16.25;6.45;;;;;;;8.12;46.17;98329.75;4502669;31;20114;-82
2023/03/05 09:17:59;;;;;;;18.65;7.35;;;;;;;8.21;46.27;98323.19;4495031;31;20096;-83
2023/03/05 09:20:24;;;;;;;17.70;7.53;;;;;;;8.04;46.71;98329.31;4478811;31;20154;-80
2023/03/05 09:22:50;;;;;;;19.77;7.25;;;;;;;8.28;46.20;98321.91;4489357;31;20473;-80
2023/03/05 09:25:15;;;;;;;18.75;7.45;;;;;;;8.41;46.02;98320.38;4499102;31;20499;-80
2023/03/05 09:27:42;;;;;;;18.83;7.07;;;;;;;8.07;47.26;98335.25;4502191;31;20088;-77
2023/03/05 09:30:08;;;;;;;16.37;7.43;;;;;;;8.06;47.41;98335.31;4502364;31;20367;-77
2023/03/05 09:32:34;;;;;;;18.15;7.85;;;;;;;7.40;49.27;98323.75;4502331;31;20744;-78
2023/03/05 09:34:59;;;;;;;18.25;7.40;;;;;;;7.54;49.40;98330.94;4502212;31;20076;-80
2023/03/05 09:58:13;;;;;;;23.87;8.13;;;;;;;6.39;52.69;98323.25;4510754;31;130262;-76
2023/03/05 10:00:44;;;;;;;20.15;8.60;;;;;;;6.39;52.69;98323.25;4484791;32;20114;-77
2023/03/05 10:03:16;;;;;;;20.08;8.02;;;;;;;6.24;52.16;98323.03;4498492;31;20123;-74
2023/03/05 10:05:48;;;;;;;19.70;7.20;;;;;;;6.53;51.77;98320.03;4486933;31;20468;-76
2023/03/05 10:08:15;;;;;;;21.65;8.27;;;;;;;7.03;50.53;98322.03;4514832;31;20104;-81
2023/03/05 10:10:43;;;;;;;19.85;7.97;;;;;;;7.01;49.79;98302.94;4514920;31;20474;-82
2023/03/05 10:13:38;;;;;;;17.77;7.95;;;;;;;6.64;50.39;98309.91;4500326;31;20447;-81
2023/03/05 10:16:22;;;;;;;20.50;8.32;;;;;;;6.87;49.71;98316.69;4498149;31;20087;-82
2023/03/05 10:19:32;;;;;;;18.83;7.78;;;;;;;7.15;48.87;98300.53;4514759;31;20439;-83
2023/03/05 10:22:13;;;;;;;16.70;6.85;;;;;;;7.45;48.25;98307.78;4449880;32;20508;-81
2023/03/05 10:25:19;;;;;;;16.33;6.75;;;;;;;7.03;48.99;98296.72;4447771;32;20093;-76
2023/03/05 10:27:52;;;;;;;18.02;6.93;;;;;;;6.89;48.77;98297.41;4388698;32;20143;-77
2023/03/05 10:30:39;;;;;;;19.83;7.40;;;;;;;7.01;48.78;98282.84;4380358;32;20142;-81
2023/03/05 10:33:30;;;;;;;19.37;7.15;;;;;;;7.11;48.59;98288.50;4387932;32;20115;-80
2023/03/05 10:36:26;;;;;;;17.80;6.82;;;;;;;6.70;48.88;98283.44;4387323;32;20164;-81
2023/03/05 10:39:07;;;;;;;18.25;6.95;;;;;;;7.29;47.82;98277.09;4387483;32;20117;-78
2023/03/05 10:42:14;;;;;;;17.12;7.20;;;;;;;7.72;47.22;98274.09;4381096;32;20220;-76
2023/03/05 10:44:42;;;;;;;18.25;6.78;;;;;;;7.76;47.01;98270.37;4373342;32;20107;-80
2023/03/05 10:47:49;;;;;;;19.23;7.40;;;;;;;7.84;46.20;98273.50;4373089;32;20418;-82
2023/03/05 10:50:21;;;;;;;18.92;7.60;;;;;;;7.74;46.78;98279.28;4343213;33;20159;-76
2023/03/05 10:52:51;;;;;;;17.12;6.57;;;;;;;7.61;45.76;98272.03;4345403;33;20115;-78
2023/03/05 10:55:19;;;;;;;19.42;7.12;;;;;;;7.54;46.11;98280.28;4367277;32;20126;-78
2023/03/05 10:57:46;;;;;;;18.75;7.28;;;;;;;7.51;46.01;98273.41;4402239;32;20119;-80
2023/03/05 11:00:22;;;;;;;16.08;6.53;;;;;;;7.26;46.96;98266.78;4401792;32;20470;-78
2023/03/05 11:03:20;;;;;;;16.60;7.07;;;;;;;7.87;45.78;98262.81;4407698;32;20458;-80
2023/03/05 11:06:00;;;;;;;19.67;7.35;;;;;;;7.52;46.23;98259.41;4386519;32;20130;-82
2023/03/05 11:08:33;;;;;;;19.02;7.00;;;;;;;7.08;47.77;98268.53;4363963;32;20103;-82
2023/03/05 11:11:11;;;;;;;16.92;6.60;;;;;;;7.11;47.53;98261.44;4371938;32;20116;-78
2023/03/05 11:13:43;;;;;;;16.75;6.65;;;;;;;7.05;47.19;98255.59;4362467;32;20145;-81
2023/03/05 11:16:23;;;;;;;18.48;7.90;;;;;;;7.12;47.52;98263.16;4350010;32;20627;-85
2023/03/05 11:18:48;;;;;;;17.37;7.35;;;;;;;6.90;47.84;98264.19;4362675;32;20125;-80
2023/03/05 11:23:34;;;;;;;18.20;6.78;;;;;;;8.21;45.07;98234.81;4523511;31;203625;-79
2023/03/05 11:26:02;;;;;;;18.52;6.87;;;;;;;8.21;45.07;98234.81;4514833;31;20117;-80
2023/03/05 11:28:39;;;;;;;17.95;6.80;;;;;;;7.65;45.82;98231.63;4500550;31;20461;-81
2023/03/05 11:31:22;;;;;;;18.62;8.02;;;;;;;6.67;47.89;98247.81;4515145;31;20188;-82
2023/03/05 11:33:56;;;;;;;106.12;100.30;;;;;;;7.15;46.78;98240.28;4515009;31;20096;-82
2023/03/05 11:36:36;;;;;;;14.40;5.53;;;;;;;7.07;46.67;98243.28;4514584;31;20131;-81
2023/03/05 11:39:04;;;;;;;13.82;4.93;;;;;;;6.99;46.67;98232.34;4514692;31;20092;-81
2023/03/05 11:41:51;;;;;;;16.20;6.03;;;;;;;7.15;46.31;98237.66;4511765;31;20088;-76
2023/03/05 11:44:44;;;;;;;17.92;12.00;;;;;;;6.96;46.83;98234.25;4514621;31;20103;-77
2023/03/05 11:47:18;;;;;;;97.53;91.60;;;;;;;7.27;45.99;98218.69;4511902;31;20386;-75
2023/03/05 11:49:46;;;;;;;18.15;7.78;;;;;;;7.19;46.49;98215.63;4513817;31;20469;-77
2023/03/05 11:52:14;;;;;;;;;;;;;;;7.22;46.13;98209.37;4489166;32;20085;-80
2023/03/05 11:55:03;;;;;;;95.05;89.70;;;;;;;6.87;46.72;98207.56;4483213;32;20375;-80
